sensor_id;sensor_type;location;lat;lon;timestamp;P1;durP1;ratioP1;P2;durP2;ratioP2
3995;SDS011;2012;49.794;9.722;2022-08-25T00:01:19;8.77;;;5.13;;
3995;SDS011;2012;49.794;9.722;2022-08-25T00:04:08;6.73;;;4.53;;
3995;SDS011;2012;49.794;9.722;2022-08-25T00:06:38;10.97;;;5.43;;
3995;SDS011;2012;49.794;9.722;2022-08-25T00:09:07;5.40;;;4.90;;
3995;SDS011;2012;49.794;9.722;2022-08-25T00:11:35;6.73;;;4.80;;
3995;SDS011;2012;49.794;9.722;2022-08-25T00:14:08;7.70;;;4.90;;
3995;SDS011;2012;49.794;9.722;2022-08-25T00:16:39;8.33;;;5.27;;
3995;SDS011;2012;49.794;9.722;2022-08-25T00:19:08;7.30;;;5.70;;
3995;SDS011;2012;49.794;9.722;2022-08-25T00:21:39;7.37;;;5.33;;
3995;SDS011;2012;49.794;9.722;2022-08-25T00:24:07;6.70;;;5.30;;
3995;SDS011;2012;49.794;9.722;2022-08-25T00:26:37;13.03;;;5.30;;
3995;SDS011;2012;49.794;9.722;2022-08-25T00:29:06;5.47;;;4.80;;
3995;SDS011;2012;49.794;9.722;2022-08-25T00:31:34;7.00;;;4.93;;
3995;SDS011;2012;49.794;9.722;2022-08-25T00:34:06;5.87;;;5.27;;
3995;SDS011;2012;49.794;9.722;2022-08-25T00:36:34;11.00;;;5.97;;
3995;SDS011;2012;49.794;9.722;2022-08-25T00:39:01;9.13;;;5.83;;
3995;SDS011;2012;49.794;9.722;2022-08-25T00:41:28;8.37;;;5.20;;
3995;SDS011;2012;49.794;9.722;2022-08-25T00:43:56;16.73;;;6.77;;
3995;SDS011;2012;49.794;9.722;2022-08-25T00:46:40;10.10;;;6.53;;
3995;SDS011;2012;49.794;9.722;2022-08-25T00:49:20;6.80;;;5.50;;
3995;SDS011;2012;49.794;9.722;2022-08-25T00:51:54;11.73;;;5.70;;
3995;SDS011;2012;49.794;9.722;2022-08-25T00:54:28;7.17;;;5.97;;
3995;SDS011;2012;49.794;9.722;2022-08-25T00:57:11;6.90;;;6.13;;
3995;SDS011;2012;49.794;9.722;2022-08-25T00:59:41;6.90;;;5.70;;
3995;SDS011;2012;49.794;9.722;2022-08-25T01:02:09;21.83;;;6.13;;
3995;SDS011;2012;49.794;9.722;2022-08-25T01:04:39;6.93;;;5.47;;
3995;SDS011;2012;49.794;9.722;2022-08-25T01:07:14;6.20;;;5.60;;
3995;SDS011;2012;49.794;9.722;2022-08-25T01:09:43;11.80;;;6.27;;
3995;SDS011;2012;49.794;9.722;2022-08-25T01:12:12;10.23;;;6.30;;
3995;SDS011;2012;49.794;9.722;2022-08-25T01:14:41;9.60;;;5.73;;
3995;SDS011;2012;49.794;9.722;2022-08-25T01:17:12;11.53;;;6.10;;
3995;SDS011;2012;49.794;9.722;2022-08-25T01:19:39;11.43;;;5.90;;
3995;SDS011;2012;49.794;9.722;2022-08-25T01:22:06;7.47;;;5.77;;
3995;SDS011;2012;49.794;9.722;2022-08-25T01:24:46;7.17;;;6.10;;
3995;SDS011;2012;49.794;9.722;2022-08-25T01:27:19;8.33;;;6.03;;
3995;SDS011;2012;49.794;9.722;2022-08-25T01:29:46;6.53;;;5.80;;
3995;SDS011;2012;49.794;9.722;2022-08-25T01:32:14;5.70;;;5.10;;
3995;SDS011;2012;49.794;9.722;2022-08-25T01:34:42;10.07;;;6.43;;
3995;SDS011;2012;49.794;9.722;2022-08-25T01:37:11;9.33;;;5.90;;
3995;SDS011;2012;49.794;9.722;2022-08-25T01:39:40;7.43;;;5.90;;
3995;SDS011;2012;49.794;9.722;2022-08-25T01:42:12;11.33;;;6.27;;
3995;SDS011;2012;49.794;9.722;2022-08-25T01:44:43;11.40;;;6.70;;
3995;SDS011;2012;49.794;9.722;2022-08-25T01:47:11;7.80;;;6.87;;
3995;SDS011;2012;49.794;9.722;2022-08-25T01:49:39;6.97;;;6.27;;
3995;SDS011;2012;49.794;9.722;2022-08-25T01:54:58;7.53;;;6.00;;
3995;SDS011;2012;49.794;9.722;2022-08-25T01:57:25;11.13;;;6.67;;
3995;SDS011;2012;49.794;9.722;2022-08-25T01:59:56;18.00;;;6.80;;
3995;SDS011;2012;49.794;9.722;2022-08-25T02:02:23;9.27;;;6.03;;
3995;SDS011;2012;49.794;9.722;2022-08-25T02:04:51;12.80;;;7.50;;
3995;SDS011;2012;49.794;9.722;2022-08-25T02:07:18;7.30;;;6.13;;
3995;SDS011;2012;49.794;9.722;2022-08-25T02:09:45;13.13;;;6.40;;
3995;SDS011;2012;49.794;9.722;2022-08-25T02:12:12;6.90;;;6.20;;
3995;SDS011;2012;49.794;9.722;2022-08-25T02:14:39;10.67;;;6.00;;
3995;SDS011;2012;49.794;9.722;2022-08-25T02:17:06;13.60;;;6.80;;
3995;SDS011;2012;49.794;9.722;2022-08-25T02:19:34;8.83;;;6.10;;
3995;SDS011;2012;49.794;9.722;2022-08-25T02:22:01;10.23;;;6.13;;
3995;SDS011;2012;49.794;9.722;2022-08-25T02:24:29;10.30;;;6.87;;
3995;SDS011;2012;49.794;9.722;2022-08-25T02:26:56;11.43;;;6.83;;
3995;SDS011;2012;49.794;9.722;2022-08-25T02:29:23;9.03;;;6.60;;
3995;SDS011;2012;49.794;9.722;2022-08-25T02:31:50;6.60;;;5.93;;
3995;SDS011;2012;49.794;9.722;2022-08-25T02:34:16;7.00;;;6.13;;
3995;SDS011;2012;49.794;9.722;2022-08-25T02:36:43;7.83;;;6.33;;
3995;SDS011;2012;49.794;9.722;2022-08-25T02:39:10;8.70;;;7.57;;
3995;SDS011;2012;49.794;9.722;2022-08-25T02:41:38;11.63;;;6.70;;
3995;SDS011;2012;49.794;9.722;2022-08-25T02:44:05;8.93;;;6.33;;
3995;SDS011;2012;49.794;9.722;2022-08-25T02:46:33;10.27;;;6.50;;
3995;SDS011;2012;49.794;9.722;2022-08-25T02:49:01;16.43;;;7.17;;
3995;SDS011;2012;49.794;9.722;2022-08-25T02:51:28;9.53;;;7.37;;
3995;SDS011;2012;49.794;9.722;2022-08-25T02:53:56;7.50;;;6.37;;
3995;SDS011;2012;49.794;9.722;2022-08-25T02:56:24;10.50;;;6.80;;
3995;SDS011;2012;49.794;9.722;2022-08-25T02:58:51;8.47;;;6.80;;
3995;SDS011;2012;49.794;9.722;2022-08-25T03:01:18;7.30;;;6.60;;
3995;SDS011;2012;49.794;9.722;2022-08-25T03:03:47;8.90;;;6.63;;
3995;SDS011;2012;49.794;9.722;2022-08-25T03:06:16;6.40;;;5.80;;
3995;SDS011;2012;49.794;9.722;2022-08-25T03:08:44;8.70;;;6.73;;
3995;SDS011;2012;49.794;9.722;2022-08-25T03:11:11;11.10;;;7.83;;
3995;SDS011;2012;49.794;9.722;2022-08-25T03:13:39;10.53;;;7.70;;
3995;SDS011;2012;49.794;9.722;2022-08-25T03:16:06;13.73;;;7.83;;
3995;SDS011;2012;49.794;9.722;2022-08-25T03:18:37;13.53;;;7.77;;
3995;SDS011;2012;49.794;9.722;2022-08-25T03:21:05;11.13;;;7.40;;
3995;SDS011;2012;49.794;9.722;2022-08-25T03:23:32;11.00;;;7.83;;
3995;SDS011;2012;49.794;9.722;2022-08-25T03:26:00;7.10;;;6.40;;
3995;SDS011;2012;49.794;9.722;2022-08-25T03:28:46;13.80;;;7.13;;
3995;SDS011;2012;49.794;9.722;2022-08-25T03:31:12;12.00;;;7.57;;
3995;SDS011;2012;49.794;9.722;2022-08-25T03:33:39;8.70;;;7.23;;
3995;SDS011;2012;49.794;9.722;2022-08-25T03:36:06;13.73;;;7.27;;
3995;SDS011;2012;49.794;9.722;2022-08-25T03:38:34;8.37;;;6.80;;
3995;SDS011;2012;49.794;9.722;2022-08-25T03:41:13;8.20;;;6.73;;
3995;SDS011;2012;49.794;9.722;2022-08-25T03:43:41;11.40;;;8.00;;
3995;SDS011;2012;49.794;9.722;2022-08-25T03:46:09;11.13;;;6.90;;
3995;SDS011;2012;49.794;9.722;2022-08-25T03:48:49;6.97;;;6.07;;
3995;SDS011;2012;49.794;9.722;2022-08-25T03:51:24;8.67;;;7.00;;
3995;SDS011;2012;49.794;9.722;2022-08-25T03:53:56;10.07;;;7.33;;
3995;SDS011;2012;49.794;9.722;2022-08-25T03:56:24;15.10;;;7.10;;
3995;SDS011;2012;49.794;9.722;2022-08-25T03:58:52;11.20;;;7.00;;
3995;SDS011;2012;49.794;9.722;2022-08-25T04:01:19;7.97;;;7.17;;
3995;SDS011;2012;49.794;9.722;2022-08-25T04:03:47;22.97;;;6.90;;
3995;SDS011;2012;49.794;9.722;2022-08-25T04:06:15;8.67;;;7.17;;
3995;SDS011;2012;49.794;9.722;2022-08-25T04:08:43;10.87;;;7.47;;
3995;SDS011;2012;49.794;9.722;2022-08-25T04:11:14;8.40;;;7.30;;
3995;SDS011;2012;49.794;9.722;2022-08-25T04:13:44;10.47;;;7.30;;
3995;SDS011;2012;49.794;9.722;2022-08-25T04:16:12;12.10;;;7.77;;
3995;SDS011;2012;49.794;9.722;2022-08-25T04:18:48;9.57;;;7.50;;
3995;SDS011;2012;49.794;9.722;2022-08-25T04:21:17;18.40;;;7.63;;
3995;SDS011;2012;49.794;9.722;2022-08-25T04:23:45;8.60;;;6.80;;
3995;SDS011;2012;49.794;9.722;2022-08-25T04:26:20;8.53;;;7.23;;
3995;SDS011;2012;49.794;9.722;2022-08-25T04:28:57;11.03;;;6.67;;
3995;SDS011;2012;49.794;9.722;2022-08-25T04:31:26;10.97;;;7.27;;
3995;SDS011;2012;49.794;9.722;2022-08-25T04:33:53;11.27;;;7.43;;
3995;SDS011;2012;49.794;9.722;2022-08-25T04:36:20;10.67;;;8.10;;
3995;SDS011;2012;49.794;9.722;2022-08-25T04:38:47;10.53;;;7.77;;
3995;SDS011;2012;49.794;9.722;2022-08-25T04:41:16;12.97;;;7.20;;
3995;SDS011;2012;49.794;9.722;2022-08-25T04:43:45;8.23;;;7.00;;
3995;SDS011;2012;49.794;9.722;2022-08-25T04:46:13;23.23;;;8.40;;
3995;SDS011;2012;49.794;9.722;2022-08-25T04:48:46;10.20;;;7.63;;
3995;SDS011;2012;49.794;9.722;2022-08-25T04:51:18;15.60;;;7.90;;
3995;SDS011;2012;49.794;9.722;2022-08-25T04:53:48;15.53;;;8.20;;
3995;SDS011;2012;49.794;9.722;2022-08-25T04:56:16;10.20;;;8.40;;
3995;SDS011;2012;49.794;9.722;2022-08-25T04:58:44;10.30;;;8.60;;
3995;SDS011;2012;49.794;9.722;2022-08-25T05:01:13;13.90;;;8.57;;
3995;SDS011;2012;49.794;9.722;2022-08-25T05:03:43;16.87;;;8.23;;
3995;SDS011;2012;49.794;9.722;2022-08-25T05:06:11;15.70;;;8.00;;
3995;SDS011;2012;49.794;9.722;2022-08-25T05:08:41;12.73;;;8.23;;
3995;SDS011;2012;49.794;9.722;2022-08-25T05:11:12;9.57;;;7.83;;
3995;SDS011;2012;49.794;9.722;2022-08-25T05:13:41;10.83;;;7.90;;
3995;SDS011;2012;49.794;9.722;2022-08-25T05:16:17;14.50;;;8.17;;
3995;SDS011;2012;49.794;9.722;2022-08-25T05:18:44;17.33;;;8.77;;
3995;SDS011;2012;49.794;9.722;2022-08-25T05:21:13;16.87;;;7.43;;
3995;SDS011;2012;49.794;9.722;2022-08-25T05:23:45;10.13;;;8.17;;
3995;SDS011;2012;49.794;9.722;2022-08-25T05:26:13;17.80;;;9.50;;
3995;SDS011;2012;49.794;9.722;2022-08-25T05:28:46;9.87;;;8.00;;
3995;SDS011;2012;49.794;9.722;2022-08-25T05:31:17;16.10;;;9.03;;
3995;SDS011;2012;49.794;9.722;2022-08-25T05:33:45;11.07;;;8.90;;
3995;SDS011;2012;49.794;9.722;2022-08-25T05:36:12;12.50;;;9.27;;
3995;SDS011;2012;49.794;9.722;2022-08-25T05:38:39;15.20;;;8.00;;
3995;SDS011;2012;49.794;9.722;2022-08-25T05:41:08;12.43;;;8.90;;
3995;SDS011;2012;49.794;9.722;2022-08-25T05:43:38;14.93;;;8.33;;
3995;SDS011;2012;49.794;9.722;2022-08-25T05:46:06;13.40;;;8.73;;
3995;SDS011;2012;49.794;9.722;2022-08-25T05:48:34;11.53;;;9.10;;
3995;SDS011;2012;49.794;9.722;2022-08-25T05:51:02;11.00;;;7.70;;
3995;SDS011;2012;49.794;9.722;2022-08-25T05:53:32;13.70;;;9.00;;
3995;SDS011;2012;49.794;9.722;2022-08-25T05:55:59;9.53;;;8.53;;
3995;SDS011;2012;49.794;9.722;2022-08-25T05:58:26;12.47;;;9.03;;
3995;SDS011;2012;49.794;9.722;2022-08-25T06:00:54;11.57;;;8.70;;
3995;SDS011;2012;49.794;9.722;2022-08-25T06:03:22;10.37;;;8.03;;
3995;SDS011;2012;49.794;9.722;2022-08-25T06:05:49;17.20;;;8.63;;
3995;SDS011;2012;49.794;9.722;2022-08-25T06:08:15;9.50;;;8.37;;
3995;SDS011;2012;49.794;9.722;2022-08-25T06:10:42;16.50;;;9.27;;
3995;SDS011;2012;49.794;9.722;2022-08-25T06:13:09;11.10;;;9.57;;
3995;SDS011;2012;49.794;9.722;2022-08-25T06:15:37;14.03;;;8.13;;
3995;SDS011;2012;49.794;9.722;2022-08-25T06:18:03;9.80;;;7.73;;
3995;SDS011;2012;49.794;9.722;2022-08-25T06:20:30;9.80;;;7.00;;
3995;SDS011;2012;49.794;9.722;2022-08-25T06:22:57;20.33;;;7.33;;
3995;SDS011;2012;49.794;9.722;2022-08-25T06:25:25;8.90;;;7.03;;
3995;SDS011;2012;49.794;9.722;2022-08-25T06:27:53;16.33;;;7.60;;
3995;SDS011;2012;49.794;9.722;2022-08-25T06:30:21;14.30;;;8.33;;
3995;SDS011;2012;49.794;9.722;2022-08-25T06:32:54;10.53;;;8.00;;
3995;SDS011;2012;49.794;9.722;2022-08-25T06:35:21;9.70;;;7.77;;
3995;SDS011;2012;49.794;9.722;2022-08-25T06:37:47;14.67;;;7.87;;
3995;SDS011;2012;49.794;9.722;2022-08-25T06:40:14;9.93;;;7.77;;
3995;SDS011;2012;49.794;9.722;2022-08-25T06:42:46;10.40;;;7.23;;
3995;SDS011;2012;49.794;9.722;2022-08-25T06:45:14;18.00;;;8.60;;
3995;SDS011;2012;49.794;9.722;2022-08-25T06:47:41;11.20;;;7.83;;
3995;SDS011;2012;49.794;9.722;2022-08-25T06:50:11;21.40;;;8.43;;
3995;SDS011;2012;49.794;9.722;2022-08-25T06:52:37;12.60;;;8.20;;
3995;SDS011;2012;49.794;9.722;2022-08-25T06:55:04;24.33;;;10.63;;
3995;SDS011;2012;49.794;9.722;2022-08-25T06:57:32;29.37;;;9.83;;
3995;SDS011;2012;49.794;9.722;2022-08-25T07:00:03;19.90;;;8.40;;
3995;SDS011;2012;49.794;9.722;2022-08-25T07:02:31;36.63;;;11.70;;
3995;SDS011;2012;49.794;9.722;2022-08-25T07:05:00;29.37;;;11.30;;
3995;SDS011;2012;49.794;9.722;2022-08-25T07:07:29;27.83;;;10.47;;
3995;SDS011;2012;49.794;9.722;2022-08-25T07:10:09;23.70;;;10.67;;
3995;SDS011;2012;49.794;9.722;2022-08-25T07:12:37;29.33;;;11.70;;
3995;SDS011;2012;49.794;9.722;2022-08-25T07:15:04;28.87;;;12.30;;
3995;SDS011;2012;49.794;9.722;2022-08-25T07:17:46;15.80;;;10.77;;
3995;SDS011;2012;49.794;9.722;2022-08-25T07:20:14;20.20;;;10.57;;
3995;SDS011;2012;49.794;9.722;2022-08-25T07:22:44;19.87;;;10.33;;
3995;SDS011;2012;49.794;9.722;2022-08-25T07:25:11;16.50;;;10.30;;
3995;SDS011;2012;49.794;9.722;2022-08-25T07:27:40;19.27;;;11.57;;
3995;SDS011;2012;49.794;9.722;2022-08-25T07:30:08;17.07;;;11.93;;
3995;SDS011;2012;49.794;9.722;2022-08-25T07:32:36;16.10;;;10.90;;
3995;SDS011;2012;49.794;9.722;2022-08-25T07:35:07;15.80;;;11.73;;
3995;SDS011;2012;49.794;9.722;2022-08-25T07:37:44;17.00;;;12.13;;
3995;SDS011;2012;49.794;9.722;2022-08-25T07:40:17;13.70;;;11.03;;
3995;SDS011;2012;49.794;9.722;2022-08-25T07:42:50;19.03;;;11.13;;
3995;SDS011;2012;49.794;9.722;2022-08-25T07:45:19;20.87;;;12.17;;
3995;SDS011;2012;49.794;9.722;2022-08-25T07:47:58;18.40;;;10.83;;
3995;SDS011;2012;49.794;9.722;2022-08-25T07:50:27;12.43;;;10.07;;
3995;SDS011;2012;49.794;9.722;2022-08-25T07:52:55;16.10;;;11.30;;
3995;SDS011;2012;49.794;9.722;2022-08-25T07:55:24;22.30;;;12.13;;
3995;SDS011;2012;49.794;9.722;2022-08-25T07:57:52;18.03;;;10.60;;
3995;SDS011;2012;49.794;9.722;2022-08-25T08:00:22;16.30;;;10.90;;
3995;SDS011;2012;49.794;9.722;2022-08-25T08:02:53;15.83;;;10.47;;
3995;SDS011;2012;49.794;9.722;2022-08-25T08:05:19;14.67;;;9.93;;
3995;SDS011;2012;49.794;9.722;2022-08-25T08:07:49;12.10;;;10.40;;
3995;SDS011;2012;49.794;9.722;2022-08-25T08:10:15;13.57;;;10.97;;
3995;SDS011;2012;49.794;9.722;2022-08-25T08:13:02;13.23;;;10.67;;
3995;SDS011;2012;49.794;9.722;2022-08-25T08:15:32;18.10;;;10.20;;
3995;SDS011;2012;49.794;9.722;2022-08-25T08:18:00;12.03;;;9.27;;
3995;SDS011;2012;49.794;9.722;2022-08-25T08:20:28;14.83;;;9.80;;
3995;SDS011;2012;49.794;9.722;2022-08-25T08:23:07;15.90;;;10.23;;
3995;SDS011;2012;49.794;9.722;2022-08-25T08:25:34;13.40;;;9.70;;
3995;SDS011;2012;49.794;9.722;2022-08-25T08:28:01;21.00;;;9.53;;
3995;SDS011;2012;49.794;9.722;2022-08-25T08:30:28;12.90;;;8.97;;
3995;SDS011;2012;49.794;9.722;2022-08-25T08:32:55;17.17;;;10.07;;
3995;SDS011;2012;49.794;9.722;2022-08-25T08:35:35;14.00;;;8.97;;
3995;SDS011;2012;49.794;9.722;2022-08-25T08:38:02;14.70;;;9.20;;
3995;SDS011;2012;49.794;9.722;2022-08-25T08:40:31;12.70;;;9.13;;
3995;SDS011;2012;49.794;9.722;2022-08-25T08:43:05;11.07;;;9.10;;
3995;SDS011;2012;49.794;9.722;2022-08-25T08:48:25;13.83;;;7.83;;
3995;SDS011;2012;49.794;9.722;2022-08-25T08:51:28;16.40;;;8.47;;
3995;SDS011;2012;49.794;9.722;2022-08-25T08:54:18;12.27;;;8.07;;
3995;SDS011;2012;49.794;9.722;2022-08-25T08:56:56;11.67;;;7.47;;
3995;SDS011;2012;49.794;9.722;2022-08-25T08:59:40;8.60;;;7.80;;
3995;SDS011;2012;49.794;9.722;2022-08-25T09:02:16;11.20;;;7.90;;
3995;SDS011;2012;49.794;9.722;2022-08-25T09:05:12;13.80;;;8.33;;
3995;SDS011;2012;49.794;9.722;2022-08-25T09:07:49;12.80;;;8.40;;
3995;SDS011;2012;49.794;9.722;2022-08-25T09:10:21;12.13;;;7.87;;
3995;SDS011;2012;49.794;9.722;2022-08-25T09:15:56;18.93;;;8.60;;
3995;SDS011;2012;49.794;9.722;2022-08-25T09:19:08;16.33;;;7.57;;
3995;SDS011;2012;49.794;9.722;2022-08-25T09:25:44;9.73;;;7.83;;
3995;SDS011;2012;49.794;9.722;2022-08-25T09:31:22;9.10;;;7.40;;
3995;SDS011;2012;49.794;9.722;2022-08-25T09:33:55;8.23;;;7.07;;
3995;SDS011;2012;49.794;9.722;2022-08-25T09:36:23;10.20;;;7.40;;
3995;SDS011;2012;49.794;9.722;2022-08-25T09:38:50;15.37;;;7.17;;
3995;SDS011;2012;49.794;9.722;2022-08-25T09:41:17;17.17;;;7.57;;
3995;SDS011;2012;49.794;9.722;2022-08-25T09:46:59;12.97;;;5.27;;
3995;SDS011;2012;49.794;9.722;2022-08-25T09:49:42;8.77;;;5.97;;
3995;SDS011;2012;49.794;9.722;2022-08-25T09:57:34;5.93;;;5.33;;
3995;SDS011;2012;49.794;9.722;2022-08-25T10:05:58;5.87;;;4.80;;
3995;SDS011;2012;49.794;9.722;2022-08-25T10:11:12;7.03;;;5.30;;
3995;SDS011;2012;49.794;9.722;2022-08-25T10:14:40;6.27;;;5.70;;
3995;SDS011;2012;49.794;9.722;2022-08-25T10:16:44;7.27;;;5.30;;
3995;SDS011;2012;49.794;9.722;2022-08-25T10:19:24;5.90;;;5.40;;
3995;SDS011;2012;49.794;9.722;2022-08-25T10:22:11;6.37;;;5.30;;
3995;SDS011;2012;49.794;9.722;2022-08-25T10:24:47;11.77;;;5.90;;
3995;SDS011;2012;49.794;9.722;2022-08-25T10:27:21;7.63;;;5.60;;
3995;SDS011;2012;49.794;9.722;2022-08-25T10:30:06;6.03;;;5.53;;
3995;SDS011;2012;49.794;9.722;2022-08-25T10:41:11;6.60;;;5.30;;
3995;SDS011;2012;49.794;9.722;2022-08-25T10:44:06;6.37;;;5.53;;
3995;SDS011;2012;49.794;9.722;2022-08-25T10:47:06;12.00;;;5.70;;
3995;SDS011;2012;49.794;9.722;2022-08-25T10:49:55;5.93;;;5.40;;
3995;SDS011;2012;49.794;9.722;2022-08-25T10:57:38;9.60;;;5.70;;
3995;SDS011;2012;49.794;9.722;2022-08-25T11:00:20;12.33;;;4.90;;
3995;SDS011;2012;49.794;9.722;2022-08-25T11:06:02;5.20;;;4.70;;
3995;SDS011;2012;49.794;9.722;2022-08-25T11:08:38;9.40;;;4.80;;
3995;SDS011;2012;49.794;9.722;2022-08-25T11:13:59;7.53;;;5.90;;
3995;SDS011;2012;49.794;9.722;2022-08-25T11:16:44;8.43;;;5.30;;
3995;SDS011;2012;49.794;9.722;2022-08-25T11:30:33;6.00;;;5.40;;
3995;SDS011;2012;49.794;9.722;2022-08-25T11:33:00;11.13;;;5.57;;
3995;SDS011;2012;49.794;9.722;2022-08-25T11:35:28;9.07;;;5.30;;
3995;SDS011;2012;49.794;9.722;2022-08-25T11:38:09;8.03;;;5.93;;
3995;SDS011;2012;49.794;9.722;2022-08-25T11:52:02;5.10;;;3.83;;
3995;SDS011;2012;49.794;9.722;2022-08-25T11:54:35;5.03;;;4.17;;
3995;SDS011;2012;49.794;9.722;2022-08-25T11:57:09;9.30;;;4.03;;
3995;SDS011;2012;49.794;9.722;2022-08-25T12:13:40;10.70;;;4.63;;
3995;SDS011;2012;49.794;9.722;2022-08-25T12:27:36;9.00;;;4.23;;
3995;SDS011;2012;49.794;9.722;2022-08-25T12:31:06;12.10;;;3.73;;
3995;SDS011;2012;49.794;9.722;2022-08-25T12:36:04;6.00;;;4.20;;
3995;SDS011;2012;49.794;9.722;2022-08-25T12:38:47;7.63;;;4.40;;
3995;SDS011;2012;49.794;9.722;2022-08-25T12:44:08;6.30;;;4.03;;
3995;SDS011;2012;49.794;9.722;2022-08-25T12:46:45;3.90;;;3.57;;
3995;SDS011;2012;49.794;9.722;2022-08-25T12:49:32;11.77;;;4.10;;
3995;SDS011;2012;49.794;9.722;2022-08-25T12:52:04;6.30;;;4.13;;
3995;SDS011;2012;49.794;9.722;2022-08-25T12:54:44;3.97;;;3.13;;
3995;SDS011;2012;49.794;9.722;2022-08-25T13:00:28;8.17;;;3.00;;
3995;SDS011;2012;49.794;9.722;2022-08-25T13:03:25;7.17;;;3.63;;
3995;SDS011;2012;49.794;9.722;2022-08-25T13:06:04;4.13;;;3.20;;
3995;SDS011;2012;49.794;9.722;2022-08-25T13:14:25;5.10;;;3.33;;
3995;SDS011;2012;49.794;9.722;2022-08-25T13:17:03;9.20;;;3.60;;
3995;SDS011;2012;49.794;9.722;2022-08-25T13:19:31;7.50;;;3.47;;
3995;SDS011;2012;49.794;9.722;2022-08-25T13:22:02;3.87;;;3.20;;
3995;SDS011;2012;49.794;9.722;2022-08-25T13:24:42;4.30;;;3.47;;
3995;SDS011;2012;49.794;9.722;2022-08-25T13:27:20;3.37;;;3.07;;
3995;SDS011;2012;49.794;9.722;2022-08-25T13:29:51;5.63;;;3.43;;
3995;SDS011;2012;49.794;9.722;2022-08-25T13:32:27;4.67;;;3.13;;
3995;SDS011;2012;49.794;9.722;2022-08-25T13:37:50;3.63;;;3.33;;
3995;SDS011;2012;49.794;9.722;2022-08-25T13:40:22;5.50;;;4.10;;
3995;SDS011;2012;49.794;9.722;2022-08-25T13:42:54;9.20;;;3.30;;
3995;SDS011;2012;49.794;9.722;2022-08-25T13:45:26;6.87;;;3.80;;
3995;SDS011;2012;49.794;9.722;2022-08-25T13:47:57;5.80;;;3.47;;
3995;SDS011;2012;49.794;9.722;2022-08-25T13:55:47;6.70;;;3.87;;
3995;SDS011;2012;49.794;9.722;2022-08-25T13:58:31;4.90;;;4.10;;
3995;SDS011;2012;49.794;9.722;2022-08-25T14:01:11;10.53;;;3.70;;
3995;SDS011;2012;49.794;9.722;2022-08-25T14:09:47;5.00;;;4.07;;
3995;SDS011;2012;49.794;9.722;2022-08-25T14:15:34;4.10;;;3.27;;
3995;SDS011;2012;49.794;9.722;2022-08-25T14:18:11;3.70;;;3.40;;
3995;SDS011;2012;49.794;9.722;2022-08-25T14:20:45;4.20;;;3.63;;
3995;SDS011;2012;49.794;9.722;2022-08-25T14:23:17;4.37;;;3.57;;
3995;SDS011;2012;49.794;9.722;2022-08-25T14:25:48;5.10;;;3.60;;
3995;SDS011;2012;49.794;9.722;2022-08-25T14:28:17;6.37;;;3.73;;
3995;SDS011;2012;49.794;9.722;2022-08-25T14:30:48;7.10;;;4.30;;
3995;SDS011;2012;49.794;9.722;2022-08-25T14:33:22;3.87;;;3.57;;
3995;SDS011;2012;49.794;9.722;2022-08-25T14:35:53;5.70;;;3.83;;
3995;SDS011;2012;49.794;9.722;2022-08-25T14:38:22;7.57;;;4.00;;
3995;SDS011;2012;49.794;9.722;2022-08-25T14:40:49;4.73;;;3.47;;
3995;SDS011;2012;49.794;9.722;2022-08-25T14:43:17;6.50;;;4.00;;
3995;SDS011;2012;49.794;9.722;2022-08-25T14:45:49;3.80;;;3.50;;
3995;SDS011;2012;49.794;9.722;2022-08-25T14:48:25;9.30;;;3.77;;
3995;SDS011;2012;49.794;9.722;2022-08-25T14:50:56;6.43;;;3.23;;
3995;SDS011;2012;49.794;9.722;2022-08-25T14:53:24;5.77;;;3.43;;
3995;SDS011;2012;49.794;9.722;2022-08-25T14:55:53;6.53;;;3.33;;
3995;SDS011;2012;49.794;9.722;2022-08-25T14:58:24;6.70;;;3.63;;
3995;SDS011;2012;49.794;9.722;2022-08-25T15:00:59;3.77;;;3.47;;
3995;SDS011;2012;49.794;9.722;2022-08-25T15:03:32;7.40;;;3.70;;
3995;SDS011;2012;49.794;9.722;2022-08-25T15:06:02;5.20;;;3.07;;
3995;SDS011;2012;49.794;9.722;2022-08-25T15:08:30;3.20;;;3.00;;
3995;SDS011;2012;49.794;9.722;2022-08-25T15:11:16;4.40;;;3.87;;
3995;SDS011;2012;49.794;9.722;2022-08-25T15:13:43;6.17;;;3.70;;
3995;SDS011;2012;49.794;9.722;2022-08-25T15:16:17;6.43;;;3.87;;
3995;SDS011;2012;49.794;9.722;2022-08-25T15:18:59;14.03;;;3.43;;
3995;SDS011;2012;49.794;9.722;2022-08-25T15:21:31;4.00;;;3.70;;
3995;SDS011;2012;49.794;9.722;2022-08-25T15:23:58;4.10;;;3.10;;
3995;SDS011;2012;49.794;9.722;2022-08-25T15:26:25;3.30;;;2.97;;
3995;SDS011;2012;49.794;9.722;2022-08-25T15:28:52;5.03;;;3.27;;
3995;SDS011;2012;49.794;9.722;2022-08-25T15:31:19;4.40;;;3.30;;
3995;SDS011;2012;49.794;9.722;2022-08-25T15:33:48;3.47;;;3.17;;
3995;SDS011;2012;49.794;9.722;2022-08-25T15:36:17;4.53;;;3.03;;
3995;SDS011;2012;49.794;9.722;2022-08-25T15:38:49;7.70;;;3.50;;
3995;SDS011;2012;49.794;9.722;2022-08-25T15:41:16;8.07;;;3.10;;
3995;SDS011;2012;49.794;9.722;2022-08-25T15:43:43;4.67;;;3.03;;
3995;SDS011;2012;49.794;9.722;2022-08-25T15:46:10;3.13;;;2.80;;
3995;SDS011;2012;49.794;9.722;2022-08-25T15:48:43;3.33;;;3.03;;
3995;SDS011;2012;49.794;9.722;2022-08-25T15:51:10;5.90;;;3.63;;
3995;SDS011;2012;49.794;9.722;2022-08-25T15:53:37;5.37;;;3.70;;
3995;SDS011;2012;49.794;9.722;2022-08-25T15:56:04;5.60;;;3.30;;
3995;SDS011;2012;49.794;9.722;2022-08-25T15:58:33;7.07;;;3.53;;
3995;SDS011;2012;49.794;9.722;2022-08-25T16:01:00;4.53;;;3.00;;
3995;SDS011;2012;49.794;9.722;2022-08-25T16:03:27;6.00;;;3.50;;
3995;SDS011;2012;49.794;9.722;2022-08-25T16:05:56;9.00;;;3.10;;
3995;SDS011;2012;49.794;9.722;2022-08-25T16:08:23;6.97;;;3.33;;
3995;SDS011;2012;49.794;9.722;2022-08-25T16:10:50;21.27;;;3.27;;
3995;SDS011;2012;49.794;9.722;2022-08-25T16:13:17;9.80;;;3.33;;
3995;SDS011;2012;49.794;9.722;2022-08-25T16:15:45;6.30;;;2.77;;
3995;SDS011;2012;49.794;9.722;2022-08-25T16:18:19;4.83;;;3.20;;
3995;SDS011;2012;49.794;9.722;2022-08-25T16:20:49;7.47;;;3.50;;
3995;SDS011;2012;49.794;9.722;2022-08-25T16:23:17;5.97;;;4.40;;
3995;SDS011;2012;49.794;9.722;2022-08-25T16:25:46;7.23;;;4.63;;
3995;SDS011;2012;49.794;9.722;2022-08-25T16:28:17;6.13;;;4.43;;
3995;SDS011;2012;49.794;9.722;2022-08-25T16:30:47;9.03;;;4.47;;
3995;SDS011;2012;49.794;9.722;2022-08-25T16:33:18;6.67;;;4.93;;
3995;SDS011;2012;49.794;9.722;2022-08-25T16:35:45;6.63;;;4.87;;
3995;SDS011;2012;49.794;9.722;2022-08-25T16:38:14;9.93;;;5.40;;
3995;SDS011;2012;49.794;9.722;2022-08-25T16:40:41;14.70;;;5.10;;
3995;SDS011;2012;49.794;9.722;2022-08-25T16:43:08;5.63;;;5.10;;
3995;SDS011;2012;49.794;9.722;2022-08-25T16:45:35;11.93;;;4.80;;
3995;SDS011;2012;49.794;9.722;2022-08-25T16:48:03;9.27;;;4.63;;
3995;SDS011;2012;49.794;9.722;2022-08-25T16:50:30;7.13;;;5.30;;
3995;SDS011;2012;49.794;9.722;2022-08-25T16:52:59;7.57;;;5.73;;
3995;SDS011;2012;49.794;9.722;2022-08-25T16:55:49;9.23;;;5.10;;
3995;SDS011;2012;49.794;9.722;2022-08-25T16:58:29;9.23;;;5.10;;
3995;SDS011;2012;49.794;9.722;2022-08-25T17:03:35;10.93;;;5.47;;
3995;SDS011;2012;49.794;9.722;2022-08-25T17:06:03;6.40;;;5.20;;
3995;SDS011;2012;49.794;9.722;2022-08-25T17:08:30;7.33;;;5.30;;
3995;SDS011;2012;49.794;9.722;2022-08-25T17:11:09;10.03;;;6.13;;
3995;SDS011;2012;49.794;9.722;2022-08-25T17:13:39;8.03;;;6.03;;
3995;SDS011;2012;49.794;9.722;2022-08-25T17:16:11;9.60;;;5.20;;
3995;SDS011;2012;49.794;9.722;2022-08-25T17:18:40;9.40;;;5.23;;
3995;SDS011;2012;49.794;9.722;2022-08-25T17:21:08;10.90;;;5.77;;
3995;SDS011;2012;49.794;9.722;2022-08-25T17:23:49;7.30;;;5.37;;
3995;SDS011;2012;49.794;9.722;2022-08-25T17:26:16;12.73;;;5.70;;
3995;SDS011;2012;49.794;9.722;2022-08-25T17:28:43;5.60;;;5.00;;
3995;SDS011;2012;49.794;9.722;2022-08-25T17:31:11;11.90;;;5.43;;
3995;SDS011;2012;49.794;9.722;2022-08-25T17:33:39;11.13;;;5.10;;
3995;SDS011;2012;49.794;9.722;2022-08-25T17:36:06;11.27;;;5.87;;
3995;SDS011;2012;49.794;9.722;2022-08-25T17:38:34;5.67;;;5.10;;
3995;SDS011;2012;49.794;9.722;2022-08-25T17:41:03;10.17;;;5.03;;
3995;SDS011;2012;49.794;9.722;2022-08-25T17:43:33;10.33;;;5.37;;
3995;SDS011;2012;49.794;9.722;2022-08-25T17:46:03;8.50;;;5.23;;
3995;SDS011;2012;49.794;9.722;2022-08-25T17:48:31;11.20;;;5.20;;